sensor_id;sensor_type;location;lat;lon;timestamp;P1;durP1;ratioP1;P2;durP2;ratioP2
4963;SDS011;2497;47.410;9.740;2023-04-01T00:02:26;2.27;;;1.33;;
4963;SDS011;2497;47.410;9.740;2023-04-01T00:04:54;3.57;;;1.00;;
4963;SDS011;2497;47.410;9.740;2023-04-01T00:07:21;2.13;;;1.20;;
4963;SDS011;2497;47.410;9.740;2023-04-01T00:09:48;1.53;;;1.10;;
4963;SDS011;2497;47.410;9.740;2023-04-01T00:12:15;2.33;;;1.10;;
4963;SDS011;2497;47.410;9.740;2023-04-01T00:14:43;4.40;;;1.13;;
4963;SDS011;2497;47.410;9.740;2023-04-01T00:17:10;1.87;;;1.10;;
4963;SDS011;2497;47.410;9.740;2023-04-01T00:19:39;1.10;;;0.90;;
4963;SDS011;2497;47.410;9.740;2023-04-01T00:22:06;1.87;;;1.20;;
4963;SDS011;2497;47.410;9.740;2023-04-01T00:24:36;3.77;;;0.90;;
4963;SDS011;2497;47.410;9.740;2023-04-01T00:27:04;1.87;;;0.97;;
4963;SDS011;2497;47.410;9.740;2023-04-01T00:29:37;1.97;;;1.40;;
4963;SDS011;2497;47.410;9.740;2023-04-01T00:32:04;2.57;;;0.90;;
4963;SDS011;2497;47.410;9.740;2023-04-01T00:34:31;1.30;;;1.00;;
4963;SDS011;2497;47.410;9.740;2023-04-01T00:37:00;1.70;;;0.90;;
4963;SDS011;2497;47.410;9.740;2023-04-01T00:39:28;0.90;;;0.80;;
4963;SDS011;2497;47.410;9.740;2023-04-01T00:41:56;1.40;;;0.90;;
4963;SDS011;2497;47.410;9.740;2023-04-01T00:44:26;1.67;;;0.83;;
4963;SDS011;2497;47.410;9.740;2023-04-01T00:46:54;2.03;;;0.90;;
4963;SDS011;2497;47.410;9.740;2023-04-01T00:49:24;1.27;;;0.90;;
4963;SDS011;2497;47.410;9.740;2023-04-01T00:51:54;3.00;;;1.00;;
4963;SDS011;2497;47.410;9.740;2023-04-01T00:54:27;2.90;;;1.10;;
4963;SDS011;2497;47.410;9.740;2023-04-01T00:56:56;2.03;;;0.83;;
4963;SDS011;2497;47.410;9.740;2023-04-01T00:59:26;1.03;;;0.80;;
4963;SDS011;2497;47.410;9.740;2023-04-01T01:01:55;1.40;;;1.07;;
4963;SDS011;2497;47.410;9.740;2023-04-01T01:04:23;2.83;;;1.37;;
4963;SDS011;2497;47.410;9.740;2023-04-01T01:06:56;1.00;;;0.83;;
4963;SDS011;2497;47.410;9.740;2023-04-01T01:09:40;1.00;;;0.80;;
4963;SDS011;2497;47.410;9.740;2023-04-01T01:12:16;1.00;;;0.73;;
4963;SDS011;2497;47.410;9.740;2023-04-01T01:14:49;1.43;;;0.87;;
4963;SDS011;2497;47.410;9.740;2023-04-01T01:17:24;1.43;;;0.90;;
4963;SDS011;2497;47.410;9.740;2023-04-01T01:20:07;2.97;;;0.90;;
4963;SDS011;2497;47.410;9.740;2023-04-01T01:23:19;2.30;;;0.90;;
4963;SDS011;2497;47.410;9.740;2023-04-01T01:26:03;2.70;;;0.80;;
4963;SDS011;2497;47.410;9.740;2023-04-01T01:28:52;1.20;;;0.90;;
4963;SDS011;2497;47.410;9.740;2023-04-01T01:31:36;1.10;;;0.80;;
4963;SDS011;2497;47.410;9.740;2023-04-01T01:34:11;1.10;;;0.70;;
4963;SDS011;2497;47.410;9.740;2023-04-01T01:36:48;1.40;;;0.87;;
4963;SDS011;2497;47.410;9.740;2023-04-01T01:39:26;1.10;;;0.90;;
4963;SDS011;2497;47.410;9.740;2023-04-01T01:41:58;1.10;;;0.70;;
4963;SDS011;2497;47.410;9.740;2023-04-01T01:44:29;1.00;;;0.80;;
4963;SDS011;2497;47.410;9.740;2023-04-01T01:46:58;2.47;;;0.90;;
4963;SDS011;2497;47.410;9.740;2023-04-01T01:49:26;1.17;;;0.83;;
4963;SDS011;2497;47.410;9.740;2023-04-01T01:51:57;3.77;;;1.10;;
4963;SDS011;2497;47.410;9.740;2023-04-01T01:54:24;1.00;;;0.90;;
4963;SDS011;2497;47.410;9.740;2023-04-01T01:57:03;1.00;;;0.80;;
4963;SDS011;2497;47.410;9.740;2023-04-01T01:59:33;1.20;;;0.77;;
4963;SDS011;2497;47.410;9.740;2023-04-01T02:02:04;1.87;;;0.80;;
4963;SDS011;2497;47.410;9.740;2023-04-01T02:04:33;2.27;;;1.10;;
4963;SDS011;2497;47.410;9.740;2023-04-01T02:07:04;2.07;;;1.27;;
4963;SDS011;2497;47.410;9.740;2023-04-01T02:09:36;1.07;;;0.77;;
4963;SDS011;2497;47.410;9.740;2023-04-01T02:12:06;1.03;;;0.80;;
4963;SDS011;2497;47.410;9.740;2023-04-01T02:14:37;1.50;;;0.87;;
4963;SDS011;2497;47.410;9.740;2023-04-01T02:17:10;1.17;;;0.70;;
4963;SDS011;2497;47.410;9.740;2023-04-01T02:19:41;1.50;;;0.87;;
4963;SDS011;2497;47.410;9.740;2023-04-01T02:22:14;3.10;;;1.00;;
4963;SDS011;2497;47.410;9.740;2023-04-01T02:24:48;1.20;;;0.80;;
4963;SDS011;2497;47.410;9.740;2023-04-01T02:27:16;1.00;;;0.90;;
4963;SDS011;2497;47.410;9.740;2023-04-01T02:29:44;2.33;;;1.03;;
4963;SDS011;2497;47.410;9.740;2023-04-01T02:32:11;1.40;;;1.00;;
4963;SDS011;2497;47.410;9.740;2023-04-01T02:34:41;2.70;;;1.10;;
4963;SDS011;2497;47.410;9.740;2023-04-01T02:37:10;1.20;;;1.00;;
4963;SDS011;2497;47.410;9.740;2023-04-01T02:39:40;1.83;;;1.00;;
4963;SDS011;2497;47.410;9.740;2023-04-01T02:42:07;1.63;;;0.93;;
4963;SDS011;2497;47.410;9.740;2023-04-01T02:44:35;3.13;;;1.13;;
4963;SDS011;2497;47.410;9.740;2023-04-01T02:47:03;2.43;;;1.00;;
4963;SDS011;2497;47.410;9.740;2023-04-01T02:49:30;1.17;;;0.83;;
4963;SDS011;2497;47.410;9.740;2023-04-01T02:51:57;2.13;;;0.90;;
4963;SDS011;2497;47.410;9.740;2023-04-01T02:54:25;1.20;;;0.97;;
4963;SDS011;2497;47.410;9.740;2023-04-01T02:56:54;1.10;;;0.90;;
4963;SDS011;2497;47.410;9.740;2023-04-01T02:59:21;1.00;;;0.80;;
4963;SDS011;2497;47.410;9.740;2023-04-01T03:01:49;1.00;;;0.80;;
4963;SDS011;2497;47.410;9.740;2023-04-01T03:04:16;3.73;;;0.93;;
4963;SDS011;2497;47.410;9.740;2023-04-01T03:06:45;1.63;;;0.70;;
4963;SDS011;2497;47.410;9.740;2023-04-01T03:09:12;0.90;;;0.70;;
4963;SDS011;2497;47.410;9.740;2023-04-01T03:11:41;8.10;;;0.90;;
4963;SDS011;2497;47.410;9.740;2023-04-01T03:14:10;1.53;;;1.00;;
4963;SDS011;2497;47.410;9.740;2023-04-01T03:16:37;1.43;;;0.93;;
4963;SDS011;2497;47.410;9.740;2023-04-01T03:19:04;1.27;;;0.90;;
4963;SDS011;2497;47.410;9.740;2023-04-01T03:21:31;4.70;;;0.97;;
4963;SDS011;2497;47.410;9.740;2023-04-01T03:24:00;3.53;;;0.90;;
4963;SDS011;2497;47.410;9.740;2023-04-01T03:26:27;2.90;;;1.00;;
4963;SDS011;2497;47.410;9.740;2023-04-01T03:28:54;5.03;;;0.90;;
4963;SDS011;2497;47.410;9.740;2023-04-01T03:31:28;1.30;;;1.00;;
4963;SDS011;2497;47.410;9.740;2023-04-01T03:33:56;1.20;;;0.90;;
4963;SDS011;2497;47.410;9.740;2023-04-01T03:36:23;11.73;;;1.13;;
4963;SDS011;2497;47.410;9.740;2023-04-01T03:38:51;1.77;;;0.90;;
4963;SDS011;2497;47.410;9.740;2023-04-01T03:41:18;1.70;;;0.80;;
4963;SDS011;2497;47.410;9.740;2023-04-01T03:43:45;1.70;;;1.03;;
4963;SDS011;2497;47.410;9.740;2023-04-01T03:46:19;1.10;;;0.80;;
4963;SDS011;2497;47.410;9.740;2023-04-01T03:48:50;1.23;;;0.90;;
4963;SDS011;2497;47.410;9.740;2023-04-01T03:51:17;1.57;;;1.10;;
4963;SDS011;2497;47.410;9.740;2023-04-01T03:53:44;1.10;;;1.00;;
4963;SDS011;2497;47.410;9.740;2023-04-01T03:56:15;2.10;;;0.80;;
4963;SDS011;2497;47.410;9.740;2023-04-01T03:58:44;2.13;;;1.00;;
4963;SDS011;2497;47.410;9.740;2023-04-01T04:01:16;1.20;;;1.10;;
4963;SDS011;2497;47.410;9.740;2023-04-01T04:03:45;1.33;;;1.00;;
4963;SDS011;2497;47.410;9.740;2023-04-01T04:06:15;1.40;;;1.00;;
4963;SDS011;2497;47.410;9.740;2023-04-01T04:08:44;2.00;;;0.70;;
4963;SDS011;2497;47.410;9.740;2023-04-01T04:11:14;1.73;;;0.97;;
4963;SDS011;2497;47.410;9.740;2023-04-01T04:13:51;6.03;;;1.07;;
4963;SDS011;2497;47.410;9.740;2023-04-01T04:16:18;2.80;;;1.10;;
4963;SDS011;2497;47.410;9.740;2023-04-01T04:18:45;3.00;;;1.07;;
4963;SDS011;2497;47.410;9.740;2023-04-01T04:21:16;1.57;;;0.90;;
4963;SDS011;2497;47.410;9.740;2023-04-01T04:23:43;1.63;;;0.90;;
4963;SDS011;2497;47.410;9.740;2023-04-01T04:26:13;2.80;;;0.90;;
4963;SDS011;2497;47.410;9.740;2023-04-01T04:28:41;4.53;;;1.10;;
4963;SDS011;2497;47.410;9.740;2023-04-01T04:31:08;1.20;;;1.00;;
4963;SDS011;2497;47.410;9.740;2023-04-01T04:33:36;1.10;;;0.90;;
4963;SDS011;2497;47.410;9.740;2023-04-01T04:36:06;1.10;;;0.90;;
4963;SDS011;2497;47.410;9.740;2023-04-01T04:38:36;2.50;;;0.80;;
4963;SDS011;2497;47.410;9.740;2023-04-01T04:41:03;3.00;;;1.03;;
4963;SDS011;2497;47.410;9.740;2023-04-01T04:43:35;1.10;;;0.87;;
4963;SDS011;2497;47.410;9.740;2023-04-01T04:46:04;1.70;;;1.27;;
4963;SDS011;2497;47.410;9.740;2023-04-01T04:48:33;2.13;;;1.00;;
4963;SDS011;2497;47.410;9.740;2023-04-01T04:51:06;4.83;;;1.00;;
4963;SDS011;2497;47.410;9.740;2023-04-01T04:53:34;2.77;;;0.97;;
4963;SDS011;2497;47.410;9.740;2023-04-01T04:56:04;2.97;;;1.00;;
4963;SDS011;2497;47.410;9.740;2023-04-01T04:58:33;2.63;;;1.20;;
4963;SDS011;2497;47.410;9.740;2023-04-01T05:01:07;1.73;;;1.10;;
4963;SDS011;2497;47.410;9.740;2023-04-01T05:03:37;1.13;;;0.80;;
4963;SDS011;2497;47.410;9.740;2023-04-01T05:06:04;3.77;;;1.10;;
4963;SDS011;2497;47.410;9.740;2023-04-01T05:08:37;1.50;;;1.00;;
4963;SDS011;2497;47.410;9.740;2023-04-01T05:11:06;1.40;;;1.10;;
4963;SDS011;2497;47.410;9.740;2023-04-01T05:13:36;4.73;;;1.30;;
4963;SDS011;2497;47.410;9.740;2023-04-01T05:16:07;9.17;;;2.33;;
4963;SDS011;2497;47.410;9.740;2023-04-01T05:18:34;3.13;;;1.50;;
4963;SDS011;2497;47.410;9.740;2023-04-01T05:21:02;2.00;;;1.70;;
4963;SDS011;2497;47.410;9.740;2023-04-01T05:23:31;5.53;;;1.67;;
4963;SDS011;2497;47.410;9.740;2023-04-01T05:26:03;1.10;;;1.00;;
4963;SDS011;2497;47.410;9.740;2023-04-01T05:28:34;2.63;;;1.30;;
4963;SDS011;2497;47.410;9.740;2023-04-01T05:31:06;1.20;;;1.07;;
4963;SDS011;2497;47.410;9.740;2023-04-01T05:33:35;2.77;;;1.43;;
4963;SDS011;2497;47.410;9.740;2023-04-01T05:36:05;1.50;;;1.10;;
4963;SDS011;2497;47.410;9.740;2023-04-01T05:38:34;1.47;;;1.13;;
4963;SDS011;2497;47.410;9.740;2023-04-01T05:41:07;1.70;;;1.27;;
4963;SDS011;2497;47.410;9.740;2023-04-01T05:43:35;1.77;;;1.20;;
4963;SDS011;2497;47.410;9.740;2023-04-01T05:46:03;2.53;;;1.50;;
4963;SDS011;2497;47.410;9.740;2023-04-01T05:48:37;5.13;;;1.43;;
4963;SDS011;2497;47.410;9.740;2023-04-01T05:51:11;2.63;;;1.30;;
4963;SDS011;2497;47.410;9.740;2023-04-01T05:53:39;2.93;;;1.50;;
4963;SDS011;2497;47.410;9.740;2023-04-01T05:56:08;3.07;;;1.70;;
4963;SDS011;2497;47.410;9.740;2023-04-01T05:58:35;3.20;;;1.30;;
4963;SDS011;2497;47.410;9.740;2023-04-01T06:01:05;1.53;;;1.10;;
4963;SDS011;2497;47.410;9.740;2023-04-01T06:03:33;1.20;;;0.90;;
4963;SDS011;2497;47.410;9.740;2023-04-01T06:06:05;3.50;;;1.20;;
4963;SDS011;2497;47.410;9.740;2023-04-01T06:08:40;1.43;;;1.30;;
4963;SDS011;2497;47.410;9.740;2023-04-01T06:11:15;2.73;;;1.40;;
4963;SDS011;2497;47.410;9.740;2023-04-01T06:14:01;3.10;;;1.50;;
4963;SDS011;2497;47.410;9.740;2023-04-01T06:16:42;2.37;;;1.10;;
4963;SDS011;2497;47.410;9.740;2023-04-01T06:19:24;2.80;;;1.77;;
4963;SDS011;2497;47.410;9.740;2023-04-01T06:22:15;1.40;;;1.10;;
4963;SDS011;2497;47.410;9.740;2023-04-01T06:25:03;2.17;;;1.33;;
4963;SDS011;2497;47.410;9.740;2023-04-01T06:27:52;1.50;;;1.40;;
4963;SDS011;2497;47.410;9.740;2023-04-01T06:30:33;2.40;;;1.50;;
4963;SDS011;2497;47.410;9.740;2023-04-01T06:33:09;5.53;;;1.33;;
4963;SDS011;2497;47.410;9.740;2023-04-01T06:36:01;1.30;;;1.10;;
4963;SDS011;2497;47.410;9.740;2023-04-01T06:38:50;1.30;;;1.20;;
4963;SDS011;2497;47.410;9.740;2023-04-01T06:44:37;1.50;;;1.40;;
4963;SDS011;2497;47.410;9.740;2023-04-01T06:47:20;1.27;;;0.90;;
4963;SDS011;2497;47.410;9.740;2023-04-01T06:49:56;1.77;;;1.00;;
4963;SDS011;2497;47.410;9.740;2023-04-01T06:52:31;1.67;;;0.90;;
4963;SDS011;2497;47.410;9.740;2023-04-01T06:55:16;1.80;;;1.07;;
4963;SDS011;2497;47.410;9.740;2023-04-01T06:57:50;2.23;;;1.00;;
4963;SDS011;2497;47.410;9.740;2023-04-01T07:00:29;1.50;;;1.20;;
4963;SDS011;2497;47.410;9.740;2023-04-01T07:03:01;1.83;;;1.23;;
4963;SDS011;2497;47.410;9.740;2023-04-01T07:05:45;1.23;;;1.13;;
4963;SDS011;2497;47.410;9.740;2023-04-01T07:08:13;1.20;;;1.10;;
4963;SDS011;2497;47.410;9.740;2023-04-01T07:10:46;1.20;;;1.00;;
4963;SDS011;2497;47.410;9.740;2023-04-01T07:13:18;1.00;;;0.90;;
4963;SDS011;2497;47.410;9.740;2023-04-01T07:15:54;0.93;;;0.80;;
4963;SDS011;2497;47.410;9.740;2023-04-01T07:18:30;1.60;;;1.00;;
4963;SDS011;2497;47.410;9.740;2023-04-01T07:21:07;1.03;;;0.80;;
4963;SDS011;2497;47.410;9.740;2023-04-01T07:23:46;1.20;;;0.80;;
4963;SDS011;2497;47.410;9.740;2023-04-01T07:26:19;1.10;;;0.80;;
4963;SDS011;2497;47.410;9.740;2023-04-01T07:28:47;1.43;;;0.90;;
4963;SDS011;2497;47.410;9.740;2023-04-01T07:31:33;0.90;;;0.80;;
4963;SDS011;2497;47.410;9.740;2023-04-01T07:34:23;1.10;;;0.80;;
4963;SDS011;2497;47.410;9.740;2023-04-01T07:36:58;1.17;;;0.83;;
4963;SDS011;2497;47.410;9.740;2023-04-01T07:39:35;1.00;;;0.70;;
4963;SDS011;2497;47.410;9.740;2023-04-01T07:42:13;3.10;;;1.03;;
4963;SDS011;2497;47.410;9.740;2023-04-01T07:44:47;2.73;;;0.87;;
4963;SDS011;2497;47.410;9.740;2023-04-01T07:47:25;3.00;;;1.20;;
4963;SDS011;2497;47.410;9.740;2023-04-01T07:50:13;4.13;;;1.50;;
4963;SDS011;2497;47.410;9.740;2023-04-01T07:52:50;1.83;;;0.83;;
4963;SDS011;2497;47.410;9.740;2023-04-01T07:55:26;1.73;;;0.90;;
4963;SDS011;2497;47.410;9.740;2023-04-01T07:58:00;2.60;;;1.10;;
4963;SDS011;2497;47.410;9.740;2023-04-01T08:00:35;6.83;;;1.47;;
4963;SDS011;2497;47.410;9.740;2023-04-01T08:03:16;3.37;;;1.37;;
4963;SDS011;2497;47.410;9.740;2023-04-01T08:05:55;2.70;;;1.10;;
4963;SDS011;2497;47.410;9.740;2023-04-01T08:08:28;2.70;;;1.13;;
4963;SDS011;2497;47.410;9.740;2023-04-01T08:11:04;1.70;;;1.20;;
4963;SDS011;2497;47.410;9.740;2023-04-01T08:13:38;1.67;;;0.93;;
4963;SDS011;2497;47.410;9.740;2023-04-01T08:16:13;2.70;;;0.90;;
4963;SDS011;2497;47.410;9.740;2023-04-01T08:18:49;1.20;;;1.00;;
4963;SDS011;2497;47.410;9.740;2023-04-01T08:21:27;2.00;;;1.33;;
4963;SDS011;2497;47.410;9.740;2023-04-01T08:24:00;1.73;;;0.93;;
4963;SDS011;2497;47.410;9.740;2023-04-01T08:26:37;1.10;;;0.80;;
4963;SDS011;2497;47.410;9.740;2023-04-01T08:29:11;2.47;;;0.90;;
4963;SDS011;2497;47.410;9.740;2023-04-01T08:31:43;2.43;;;1.17;;
4963;SDS011;2497;47.410;9.740;2023-04-01T08:34:17;1.10;;;0.90;;
4963;SDS011;2497;47.410;9.740;2023-04-01T08:36:49;1.57;;;1.07;;
4963;SDS011;2497;47.410;9.740;2023-04-01T08:39:20;1.83;;;1.00;;
4963;SDS011;2497;47.410;9.740;2023-04-01T08:41:59;2.70;;;1.27;;
4963;SDS011;2497;47.410;9.740;2023-04-01T08:45:06;1.50;;;1.20;;
4963;SDS011;2497;47.410;9.740;2023-04-01T08:50:48;2.33;;;1.63;;
4963;SDS011;2497;47.410;9.740;2023-04-01T08:53:50;3.17;;;1.10;;
4963;SDS011;2497;47.410;9.740;2023-04-01T08:56:29;2.60;;;1.27;;
4963;SDS011;2497;47.410;9.740;2023-04-01T08:59:07;2.30;;;1.10;;
4963;SDS011;2497;47.410;9.740;2023-04-01T09:01:48;1.53;;;1.10;;
4963;SDS011;2497;47.410;9.740;2023-04-01T09:04:42;2.40;;;1.30;;
4963;SDS011;2497;47.410;9.740;2023-04-01T09:07:32;3.47;;;1.87;;
4963;SDS011;2497;47.410;9.740;2023-04-01T09:13:05;3.40;;;1.00;;
4963;SDS011;2497;47.410;9.740;2023-04-01T09:15:51;1.20;;;1.07;;
4963;SDS011;2497;47.410;9.740;2023-04-01T09:18:52;3.10;;;1.13;;
4963;SDS011;2497;47.410;9.740;2023-04-01T09:24:50;2.03;;;1.00;;
4963;SDS011;2497;47.410;9.740;2023-04-01T09:27:36;2.40;;;1.27;;
4963;SDS011;2497;47.410;9.740;2023-04-01T09:33:19;1.77;;;1.07;;
4963;SDS011;2497;47.410;9.740;2023-04-01T09:36:21;1.10;;;1.00;;
4963;SDS011;2497;47.410;9.740;2023-04-01T09:39:06;1.77;;;1.23;;
4963;SDS011;2497;47.410;9.740;2023-04-01T09:41:51;1.33;;;1.00;;
4963;SDS011;2497;47.410;9.740;2023-04-01T09:44:31;1.73;;;0.90;;
4963;SDS011;2497;47.410;9.740;2023-04-01T09:47:07;1.20;;;0.90;;
4963;SDS011;2497;47.410;9.740;2023-04-01T09:49:57;1.57;;;1.10;;
4963;SDS011;2497;47.410;9.740;2023-04-01T09:52:41;1.50;;;1.13;;
4963;SDS011;2497;47.410;9.740;2023-04-01T09:55:21;3.47;;;1.10;;
4963;SDS011;2497;47.410;9.740;2023-04-01T09:58:27;1.53;;;1.00;;
4963;SDS011;2497;47.410;9.740;2023-04-01T10:01:22;1.37;;;1.03;;
4963;SDS011;2497;47.410;9.740;2023-04-01T10:07:17;3.53;;;1.90;;
4963;SDS011;2497;47.410;9.740;2023-04-01T10:10:34;2.97;;;1.40;;
4963;SDS011;2497;47.410;9.740;2023-04-01T10:13:49;1.10;;;0.93;;
4963;SDS011;2497;47.410;9.740;2023-04-01T10:19:55;3.60;;;1.30;;
4963;SDS011;2497;47.410;9.740;2023-04-01T10:25:53;2.27;;;1.40;;
4963;SDS011;2497;47.410;9.740;2023-04-01T10:31:55;3.93;;;1.10;;
4963;SDS011;2497;47.410;9.740;2023-04-01T10:35:04;2.27;;;1.20;;
4963;SDS011;2497;47.410;9.740;2023-04-01T10:37:58;2.27;;;1.60;;
4963;SDS011;2497;47.410;9.740;2023-04-01T10:40:52;3.67;;;1.77;;
4963;SDS011;2497;47.410;9.740;2023-04-01T10:43:33;1.53;;;1.30;;
4963;SDS011;2497;47.410;9.740;2023-04-01T10:50:04;2.63;;;1.50;;
4963;SDS011;2497;47.410;9.740;2023-04-01T10:53:19;2.77;;;1.27;;
4963;SDS011;2497;47.410;9.740;2023-04-01T10:56:11;2.03;;;1.30;;
4963;SDS011;2497;47.410;9.740;2023-04-01T11:17:15;6.13;;;1.07;;
4963;SDS011;2497;47.410;9.740;2023-04-01T11:20:09;1.87;;;1.13;;
4963;SDS011;2497;47.410;9.740;2023-04-01T11:23:09;1.50;;;1.30;;
4963;SDS011;2497;47.410;9.740;2023-04-01T11:26:02;3.00;;;1.93;;
4963;SDS011;2497;47.410;9.740;2023-04-01T11:28:45;1.83;;;1.60;;
4963;SDS011;2497;47.410;9.740;2023-04-01T11:31:29;1.80;;;1.30;;
4963;SDS011;2497;47.410;9.740;2023-04-01T11:34:13;2.17;;;1.50;;
4963;SDS011;2497;47.410;9.740;2023-04-01T11:36:53;1.10;;;0.87;;
4963;SDS011;2497;47.410;9.740;2023-04-01T11:39:29;2.13;;;1.27;;
4963;SDS011;2497;47.410;9.740;2023-04-01T11:42:07;3.07;;;1.03;;
4963;SDS011;2497;47.410;9.740;2023-04-01T11:44:47;1.83;;;1.13;;
4963;SDS011;2497;47.410;9.740;2023-04-01T11:47:39;2.07;;;1.40;;
4963;SDS011;2497;47.410;9.740;2023-04-01T11:50:21;2.03;;;1.50;;
4963;SDS011;2497;47.410;9.740;2023-04-01T11:53:15;2.97;;;1.40;;
4963;SDS011;2497;47.410;9.740;2023-04-01T11:55:53;3.10;;;1.53;;
4963;SDS011;2497;47.410;9.740;2023-04-01T12:01:28;2.10;;;1.20;;
4963;SDS011;2497;47.410;9.740;2023-04-01T12:07:10;2.37;;;1.10;;
4963;SDS011;2497;47.410;9.740;2023-04-01T12:09:49;2.27;;;1.63;;
4963;SDS011;2497;47.410;9.740;2023-04-01T12:12:27;2.63;;;1.27;;
4963;SDS011;2497;47.410;9.740;2023-04-01T12:15:05;1.97;;;1.30;;
4963;SDS011;2497;47.410;9.740;2023-04-01T12:17:48;1.20;;;1.00;;
4963;SDS011;2497;47.410;9.740;2023-04-01T12:20:33;2.70;;;1.20;;
4963;SDS011;2497;47.410;9.740;2023-04-01T12:23:21;2.47;;;1.37;;
4963;SDS011;2497;47.410;9.740;2023-04-01T12:26:30;2.03;;;0.80;;
4963;SDS011;2497;47.410;9.740;2023-04-01T12:29:24;2.23;;;1.43;;
4963;SDS011;2497;47.410;9.740;2023-04-01T12:32:14;2.33;;;1.00;;
4963;SDS011;2497;47.410;9.740;2023-04-01T12:34:55;1.40;;;1.00;;
4963;SDS011;2497;47.410;9.740;2023-04-01T12:37:41;1.20;;;0.90;;
4963;SDS011;2497;47.410;9.740;2023-04-01T12:40:20;2.17;;;1.13;;
4963;SDS011;2497;47.410;9.740;2023-04-01T12:43:08;4.50;;;1.47;;
4963;SDS011;2497;47.410;9.740;2023-04-01T12:45:45;1.40;;;1.03;;
4963;SDS011;2497;47.410;9.740;2023-04-01T12:48:32;1.87;;;1.27;;
4963;SDS011;2497;47.410;9.740;2023-04-01T12:54:12;2.07;;;1.10;;
4963;SDS011;2497;47.410;9.740;2023-04-01T12:56:58;3.20;;;1.47;;
4963;SDS011;2497;47.410;9.740;2023-04-01T12:59:47;2.30;;;1.00;;
4963;SDS011;2497;47.410;9.740;2023-04-01T13:02:27;1.50;;;0.97;;
4963;SDS011;2497;47.410;9.740;2023-04-01T13:05:20;3.27;;;1.50;;
4963;SDS011;2497;47.410;9.740;2023-04-01T13:08:05;2.93;;;1.50;;
4963;SDS011;2497;47.410;9.740;2023-04-01T13:10:43;0.90;;;0.80;;
4963;SDS011;2497;47.410;9.740;2023-04-01T13:16:19;1.73;;;1.10;;
4963;SDS011;2497;47.410;9.740;2023-04-01T13:18:54;1.30;;;1.10;;
4963;SDS011;2497;47.410;9.740;2023-04-01T13:21:28;1.60;;;1.13;;
4963;SDS011;2497;47.410;9.740;2023-04-01T13:24:08;4.00;;;1.30;;
4963;SDS011;2497;47.410;9.740;2023-04-01T13:26:49;1.30;;;0.90;;
4963;SDS011;2497;47.410;9.740;2023-04-01T13:29:23;0.90;;;0.60;;
4963;SDS011;2497;47.410;9.740;2023-04-01T13:32:00;1.93;;;1.10;;
4963;SDS011;2497;47.410;9.740;2023-04-01T13:34:47;1.40;;;1.00;;
4963;SDS011;2497;47.410;9.740;2023-04-01T13:37:36;1.10;;;0.90;;
4963;SDS011;2497;47.410;9.740;2023-04-01T13:40:23;2.30;;;1.30;;
4963;SDS011;2497;47.410;9.740;2023-04-01T13:43:01;3.30;;;1.77;;
4963;SDS011;2497;47.410;9.740;2023-04-01T13:45:35;1.93;;;0.90;;
4963;SDS011;2497;47.410;9.740;2023-04-01T13:51:17;1.00;;;0.90;;
4963;SDS011;2497;47.410;9.740;2023-04-01T13:53:59;1.77;;;0.80;;
4963;SDS011;2497;47.410;9.740;2023-04-01T13:56:45;1.60;;;1.20;;
4963;SDS011;2497;47.410;9.740;2023-04-01T14:02:33;1.47;;;0.87;;
4963;SDS011;2497;47.410;9.740;2023-04-01T14:11:30;1.83;;;1.00;;
4963;SDS011;2497;47.410;9.740;2023-04-01T14:14:07;1.07;;;0.80;;
4963;SDS011;2497;47.410;9.740;2023-04-01T14:20:02;1.00;;;0.80;;
4963;SDS011;2497;47.410;9.740;2023-04-01T14:26:14;2.20;;;0.90;;
4963;SDS011;2497;47.410;9.740;2023-04-01T14:29:17;3.23;;;1.13;;
4963;SDS011;2497;47.410;9.740;2023-04-01T14:31:55;1.20;;;0.90;;
4963;SDS011;2497;47.410;9.740;2023-04-01T14:34:35;1.00;;;0.90;;
4963;SDS011;2497;47.410;9.740;2023-04-01T14:37:34;8.23;;;1.23;;
4963;SDS011;2497;47.410;9.740;2023-04-01T14:40:28;1.63;;;0.90;;
4963;SDS011;2497;47.410;9.740;2023-04-01T14:43:15;1.27;;;0.80;;
4963;SDS011;2497;47.410;9.740;2023-04-01T14:46:01;1.23;;;0.90;;
4963;SDS011;2497;47.410;9.740;2023-04-01T14:48:48;1.53;;;1.07;;
4963;SDS011;2497;47.410;9.740;2023-04-01T14:51:19;2.33;;;1.20;;
4963;SDS011;2497;47.410;9.740;2023-04-01T14:53:58;3.10;;;1.20;;
4963;SDS011;2497;47.410;9.740;2023-04-01T14:56:38;2.50;;;1.10;;
4963;SDS011;2497;47.410;9.740;2023-04-01T14:59:14;4.07;;;1.23;;
4963;SDS011;2497;47.410;9.740;2023-04-01T15:01:47;1.70;;;1.37;;
4963;SDS011;2497;47.410;9.740;2023-04-01T15:07:42;3.00;;;1.33;;
4963;SDS011;2497;47.410;9.740;2023-04-01T15:10:39;3.40;;;2.07;;
4963;SDS011;2497;47.410;9.740;2023-04-01T15:13:20;1.40;;;1.10;;
4963;SDS011;2497;47.410;9.740;2023-04-01T15:16:02;2.23;;;1.10;;
4963;SDS011;2497;47.410;9.740;2023-04-01T15:18:42;1.37;;;1.00;;
4963;SDS011;2497;47.410;9.740;2023-04-01T15:21:19;3.20;;;1.30;;
4963;SDS011;2497;47.410;9.740;2023-04-01T15:24:00;2.03;;;1.20;;
4963;SDS011;2497;47.410;9.740;2023-04-01T15:26:43;3.17;;;1.60;;
4963;SDS011;2497;47.410;9.740;2023-04-01T15:32:45;2.30;;;1.40;;
4963;SDS011;2497;47.410;9.740;2023-04-01T15:35:30;1.70;;;1.27;;
4963;SDS011;2497;47.410;9.740;2023-04-01T15:38:06;1.63;;;1.23;;
4963;SDS011;2497;47.410;9.740;2023-04-01T15:40:40;2.13;;;1.13;;
4963;SDS011;2497;47.410;9.740;2023-04-01T15:43:16;2.13;;;1.10;;
4963;SDS011;2497;47.410;9.740;2023-04-01T15:45:55;2.93;;;1.40;;
4963;SDS011;2497;47.410;9.740;2023-04-01T15:48:40;2.27;;;1.30;;
4963;SDS011;2497;47.410;9.740;2023-04-01T15:51:21;2.77;;;1.80;;
4963;SDS011;2497;47.410;9.740;2023-04-01T15:54:01;2.67;;;1.70;;
4963;SDS011;2497;47.410;9.740;2023-04-01T15:56:52;1.70;;;1.33;;
4963;SDS011;2497;47.410;9.740;2023-04-01T15:59:41;1.90;;;1.50;;
4963;SDS011;2497;47.410;9.740;2023-04-01T16:02:21;1.73;;;1.40;;
4963;SDS011;2497;47.410;9.740;2023-04-01T16:04:57;3.00;;;1.30;;
4963;SDS011;2497;47.410;9.740;2023-04-01T16:10:37;1.50;;;1.00;;
4963;SDS011;2497;47.410;9.740;2023-04-01T16:13:20;1.40;;;0.90;;
4963;SDS011;2497;47.410;9.740;2023-04-01T16:15:59;2.07;;;1.17;;
4963;SDS011;2497;47.410;9.740;2023-04-01T16:18:43;4.93;;;2.00;;
4963;SDS011;2497;47.410;9.740;2023-04-01T16:21:25;3.03;;;2.07;;
4963;SDS011;2497;47.410;9.740;2023-04-01T16:24:03;5.27;;;2.67;;
4963;SDS011;2497;47.410;9.740;2023-04-01T16:26:43;1.93;;;1.63;;
4963;SDS011;2497;47.410;9.740;2023-04-01T16:29:17;3.87;;;1.40;;
4963;SDS011;2497;47.410;9.740;2023-04-01T16:31:57;2.53;;;1.73;;
4963;SDS011;2497;47.410;9.740;2023-04-01T16:34:41;2.03;;;1.57;;
4963;SDS011;2497;47.410;9.740;2023-04-01T16:37:15;3.97;;;2.00;;
4963;SDS011;2497;47.410;9.740;2023-04-01T16:39:47;2.97;;;1.67;;
4963;SDS011;2497;47.410;9.740;2023-04-01T16:42:24;2.80;;;1.37;;
4963;SDS011;2497;47.410;9.740;2023-04-01T16:45:01;1.67;;;1.23;;
4963;SDS011;2497;47.410;9.740;2023-04-01T16:47:45;4.43;;;1.80;;
4963;SDS011;2497;47.410;9.740;2023-04-01T16:50:15;7.87;;;3.73;;
4963;SDS011;2497;47.410;9.740;2023-04-01T16:55:42;2.47;;;1.40;;
4963;SDS011;2497;47.410;9.740;2023-04-01T16:58:18;3.70;;;2.20;;
4963;SDS011;2497;47.410;9.740;2023-04-01T17:00:50;6.03;;;2.97;;
4963;SDS011;2497;47.410;9.740;2023-04-01T17:03:22;5.70;;;2.17;;
4963;SDS011;2497;47.410;9.740;2023-04-01T17:06:00;2.90;;;1.83;;
4963;SDS011;2497;47.410;9.740;2023-04-01T17:08:42;3.97;;;1.70;;
4963;SDS011;2497;47.410;9.740;2023-04-01T17:11:24;6.43;;;3.43;;
4963;SDS011;2497;47.410;9.740;2023-04-01T17:14:01;2.03;;;1.47;;
4963;SDS011;2497;47.410;9.740;2023-04-01T17:16:48;4.23;;;2.00;;
4963;SDS011;2497;47.410;9.740;2023-04-01T17:19:40;3.10;;;1.77;;
4963;SDS011;2497;47.410;9.740;2023-04-01T17:22:20;2.23;;;1.43;;
4963;SDS011;2497;47.410;9.740;2023-04-01T17:25:01;3.23;;;1.30;;
4963;SDS011;2497;47.410;9.740;2023-04-01T17:27:41;5.07;;;2.03;;
4963;SDS011;2497;47.410;9.740;2023-04-01T17:30:19;1.90;;;1.50;;
4963;SDS011;2497;47.410;9.740;2023-04-01T17:35:56;2.17;;;1.70;;
4963;SDS011;2497;47.410;9.740;2023-04-01T17:41:25;12.90;;;5.13;;
4963;SDS011;2497;47.410;9.740;2023-04-01T17:44:02;10.73;;;4.17;;
4963;SDS011;2497;47.410;9.740;2023-04-01T17:46:49;16.17;;;5.20;;
4963;SDS011;2497;47.410;9.740;2023-04-01T17:49:30;14.77;;;5.60;;
4963;SDS011;2497;47.410;9.740;2023-04-01T17:52:05;9.70;;;4.10;;
4963;SDS011;2497;47.410;9.740;2023-04-01T17:54:38;4.43;;;2.43;;
4963;SDS011;2497;47.410;9.740;2023-04-01T17:57:23;2.03;;;1.40;;
4963;SDS011;2497;47.410;9.740;2023-04-01T18:00:16;4.60;;;1.57;;